Main page
METAR-TAF:

METAR-TAF

Airports :

Montpellier–Méditerranée Airport

Montpellier, France

latitude: 43-35N, longitude: 003-58E, elevation: 5 m

Current weather observation

The report was made 24 minutes ago, at 20:00 UTC
Wind 6 kt from the North/Northwest
Temperature 4°C
Humidity 48%
Pressure 1029 hPa
Visibility 10 km or more
no clouds below 1500 m and no cumulonimbus

METAR: LFMT 212000Z AUTO 34006KT CAVOK 04/M06 Q1029 NOSIG

Time: 21:24 (20:24 UTC)

Forecast

The report was made 6 hours and 24 minutes ago, at 14:00 UTC
Forecast valid from 21 at 15 UTC to 22 at 15 UTC
Wind 15 kt from the North/Northeast
Visibility 10 km or more
no clouds below 1500 m and no cumulonimbus
Becoming
from 21 at 15 UTC to 21 at 18 UTC
Wind 10 kt from the North/Northwest

TAF: LFMT 211400Z 2115/2215 02015KT CAVOK BECMG 2115/2118 34010KT

Weather observations and forecasts of more than 4000 airports (METAR and TAF reports).

The available stations are represented by yellow and red dots on the map.

Hover mouse over dot to see the name of the station.

Then click to see weather observations and forecasts.

To change the map : click on the green buttons with a black cross to zoom in, on the green button with a dash to zoom out, or on the green arrows for adjacent maps.


METAR-TAF: